Daniel Field Augusta US
ICAO: KDNL
IATA: DNL
Category: Medium
Scheduled Services: No

Elevation: 423 ft
TransAlt. 18000 ft.

Airport Communications:
AUGUSTA APP/DEP:126.8
ASOS:135.275
CLNC DEL:128.1
MACON RDO:122.3
CTAF/UNICOM:123.05

KDNL Zoom In..

If you have problems with the map follow the link
https://www.worldairports.se/pages/airport.php?
ICAO=KDNL

Runways:

(A) RW 05 length 4002 ft width 100 ft
---- / hdg 50

(B) RW 11 length 3733 ft width 100 ft
---- / hdg 108

(C) RW 23 length 4002 ft width 100 ft
---- / hdg 230

(D) RW 29 length 3733 ft width 100 ft
---- / hdg 288

Location; KDNL
Day. 19 / Time. 14.53 Zulu
* Altimeter: 30.05
* Temperature: 12° c. 53.6°f.
* Wind from: 270° Speed 08 kn.
Dewpoint: 05° c.
Visibility: 10 Statute Miles.
Clouds: Scattered 1000 ft.

KDNL 191453Z AUTO 27008KT 230V320 10SM SCT100 12/05 A3005 RMK AO2 SLP173 60004 T01220050 51010


Wind From 270°
Speed 08 kn.

 
 
jpsmedia worldairports.se 2020   terms of use